Briefing drone pour Saint-pourcain-sur-sioule

Rechercher une autre localisation

Conditions de vol :


Nous sommes le : Mercredi 07 décembre 2022
Il est 20:52 UTC (21:52 LT)

Lever de soleil : 06:49 UTC (07:49 LT)
Coucher de soleil : 16:26 UTC (17:26 LT)

Météo

L'essentiel des conditions de vol

VIGILANCE MÉTÉO FRANCE - Allier (03)
Pas de vigilances particulieres
METAR de LFLV
LFLV 071800Z AUTO 00000KT 4100 BR OVC034 M01/M01 Q1016

Date d'émission: 07/12/2022
Heure d'émission: 18:00 UTC
Vent: Calme
Visibilité horizontale: 4100 m
Plafond :
- Couvert à 3400ft (1036m)
Température: -1 °C
Point de rosée: -1 °C
Humidité: 100%
Pression (QNH): 1016 hPa
Conditions: Brume
Prévision 24h pour Vichy (14 km)
Vent : 43° pour 1 KT (5 km/h)
Temperature Maxi: 4 °C
Temperature Min: 4 °C
Humidité : 64%
Condition : Nuageux



Warning: count(): Parameter must be an array or an object that implements Countable in /homepages/6/d509196549/htdocs/droneoxygene/briefing.php on line 743
WEBCAM POUR SAINT-POURCAIN-SUR-SIOULE

Réglementation

Voler en sécurité

CARTES AERONAUTIQUE 1/500.000
CARTE AZBA (Reseau basse altitude)
CARTES VAC (LFLV)
SUP AIP




Chargement des AIP...
NOTAM (SAINT-POURCAIN-SUR-SIOULE + Terrain à proximité / FIR )




Chargement des NOTAMS...
CONTACT PREFECTURE 03


Avertissement : Les données mises à disposition sont indicatives. Oxygène Drone ne pourra être tenu responsable de dégâts causés aux biens et aux personnes.